createdAt,value
2018-11-10T00:00:37.069Z,7.10
2018-11-10T00:03:18.837Z,7.10
2018-11-10T00:06:00.542Z,7.20
2018-11-10T00:08:42.033Z,7.20
2018-11-10T00:11:24.191Z,7.10
2018-11-10T00:14:06.582Z,7.10
2018-11-10T00:16:48.239Z,7.10
2018-11-10T00:19:30.493Z,7.10
2018-11-10T00:22:12.568Z,7.00
2018-11-10T00:24:54.567Z,6.90
2018-11-10T00:27:36.951Z,6.90
2018-11-10T00:30:19.473Z,7.00
2018-11-10T00:33:02.146Z,7.00
2018-11-10T00:35:44.523Z,7.00
2018-11-10T00:38:26.298Z,7.00
2018-11-10T00:41:08.242Z,7.00
2018-11-10T00:43:50.340Z,7.00
2018-11-10T00:46:32.522Z,7.10
2018-11-10T00:49:14.360Z,7.10
2018-11-10T00:51:56.062Z,7.00
2018-11-10T00:54:37.735Z,7.00
2018-11-10T00:57:19.782Z,7.00
2018-11-10T01:00:01.855Z,6.90
2018-11-10T01:02:45.102Z,7.00
2018-11-10T01:05:28.338Z,7.00
2018-11-10T01:08:10.784Z,7.00
2018-11-10T01:10:52.919Z,7.00
2018-11-10T01:13:34.573Z,7.00
2018-11-10T01:16:16.572Z,7.00
2018-11-10T01:18:58.263Z,7.10
2018-11-10T01:21:40.579Z,7.00
2018-11-10T01:24:22.723Z,7.00
2018-11-10T01:27:05.088Z,7.00
2018-11-10T01:29:46.849Z,7.10
2018-11-10T01:32:29.289Z,7.00
2018-11-10T01:35:11.097Z,7.00
2018-11-10T01:37:53.531Z,7.00
2018-11-10T01:40:35.484Z,7.00
2018-11-10T01:43:18.997Z,7.00
2018-11-10T01:46:00.992Z,6.90
2018-11-10T01:48:43.063Z,6.90
2018-11-10T01:51:25.371Z,6.80
2018-11-10T01:54:06.987Z,6.80
2018-11-10T01:56:49.380Z,6.90
2018-11-10T01:59:31.027Z,6.80
2018-11-10T02:02:13.049Z,6.80
2018-11-10T02:04:55.432Z,6.80
2018-11-10T02:07:37.592Z,6.90
2018-11-10T02:10:19.619Z,6.80
2018-11-10T02:13:01.432Z,6.70
2018-11-10T02:15:44.067Z,6.80
2018-11-10T02:18:26.809Z,6.80
2018-11-10T02:21:08.619Z,6.90
2018-11-10T02:23:50.290Z,6.90
2018-11-10T02:26:32.827Z,7.00
2018-11-10T02:29:14.855Z,7.00
2018-11-10T02:31:56.576Z,6.90
2018-11-10T02:34:38.548Z,6.90
2018-11-10T02:37:20.428Z,6.90
2018-11-10T02:40:02.181Z,6.90
2018-11-10T02:42:45.023Z,6.80
2018-11-10T02:45:27.359Z,6.80
2018-11-10T02:48:09.452Z,6.90
2018-11-10T02:50:51.331Z,6.90
2018-11-10T02:53:33.278Z,6.90
2018-11-10T02:56:15.707Z,6.90
2018-11-10T02:58:57.994Z,6.80
2018-11-10T03:01:39.802Z,6.70
2018-11-10T03:04:21.879Z,6.60
2018-11-10T03:07:03.975Z,6.70
2018-11-10T03:09:46.496Z,6.80
2018-11-10T03:12:28.484Z,6.80
2018-11-10T03:15:11.518Z,6.80
2018-11-10T03:17:53.926Z,6.80
2018-11-10T03:20:36.075Z,6.80
2018-11-10T03:23:18.197Z,6.80
2018-11-10T03:26:00.844Z,6.80
2018-11-10T03:28:43.009Z,6.80
2018-11-10T03:31:24.735Z,6.70
2018-11-10T03:34:06.869Z,6.70
2018-11-10T03:36:48.921Z,6.60
2018-11-10T03:39:30.875Z,6.50
2018-11-10T03:42:13.000Z,6.40
2018-11-10T03:44:55.025Z,6.30
2018-11-10T03:47:37.395Z,6.20
2018-11-10T03:50:19.582Z,6.20
2018-11-10T03:53:01.540Z,6.20
2018-11-10T03:55:43.536Z,6.30
2018-11-10T03:58:25.529Z,6.30
2018-11-10T04:01:07.334Z,6.40
2018-11-10T04:03:49.728Z,6.40
2018-11-10T04:06:38.382Z,6.40
2018-11-10T04:09:20.610Z,6.30
2018-11-10T04:12:02.731Z,6.30
2018-11-10T04:14:44.481Z,6.20
2018-11-10T04:17:26.483Z,6.10
2018-11-10T04:20:10.207Z,6.10
2018-11-10T04:22:52.270Z,6.20
2018-11-10T04:25:34.332Z,6.20
2018-11-10T04:28:16.031Z,6.20
2018-11-10T04:30:57.999Z,6.30
2018-11-10T04:33:40.436Z,6.40
2018-11-10T04:36:22.623Z,6.50
2018-11-10T04:39:06.675Z,6.70
2018-11-10T04:41:48.751Z,6.60
2018-11-10T04:44:30.468Z,6.50
2018-11-10T04:47:12.231Z,6.40
2018-11-10T04:49:54.653Z,6.30
2018-11-10T04:52:37.070Z,6.40
2018-11-10T04:55:19.468Z,6.30
2018-11-10T04:58:02.067Z,6.30
2018-11-10T05:00:43.982Z,6.30
2018-11-10T05:03:26.068Z,6.40
2018-11-10T05:06:08.491Z,6.30
2018-11-10T05:08:50.587Z,6.30
2018-11-10T05:11:32.578Z,6.30
2018-11-10T05:14:14.779Z,6.30
2018-11-10T05:16:56.976Z,6.40
2018-11-10T05:19:38.567Z,6.30
2018-11-10T05:22:20.592Z,6.10
2018-11-10T05:25:02.562Z,6.00
2018-11-10T05:27:44.308Z,5.90
2018-11-10T05:30:26.247Z,5.90
2018-11-10T05:33:07.918Z,5.90
2018-11-10T05:35:49.730Z,5.90
2018-11-10T05:38:31.508Z,5.80
2018-11-10T05:41:13.119Z,5.80
2018-11-10T05:43:54.799Z,5.90
2018-11-10T05:46:37.009Z,6.00
2018-11-10T05:49:19.196Z,6.00
2018-11-10T05:52:01.371Z,5.90
2018-11-10T05:54:43.224Z,5.80
2018-11-10T05:57:25.381Z,5.80
2018-11-10T06:00:10.497Z,5.80
2018-11-10T06:02:52.498Z,5.80
2018-11-10T06:05:34.513Z,5.90
2018-11-10T06:08:16.276Z,6.10
2018-11-10T06:10:58.632Z,6.20
2018-11-10T06:13:40.408Z,6.30
2018-11-10T06:16:22.693Z,6.30
2018-11-10T06:19:04.927Z,6.30
2018-11-10T06:21:47.447Z,6.20
2018-11-10T06:24:29.235Z,6.30
2018-11-10T06:27:11.255Z,6.40
2018-11-10T06:29:54.488Z,6.50
2018-11-10T06:32:36.954Z,6.60
2018-11-10T06:35:19.180Z,6.70
2018-11-10T06:38:01.551Z,6.80
2018-11-10T06:40:43.792Z,7.00
2018-11-10T06:43:25.419Z,7.20
2018-11-10T06:46:08.259Z,7.40
2018-11-10T06:48:50.080Z,7.50
2018-11-10T06:51:31.810Z,7.60
2018-11-10T06:54:13.829Z,7.80
2018-11-10T06:56:56.029Z,7.90
2018-11-10T06:59:38.809Z,8.10
2018-11-10T07:02:21.161Z,8.20
2018-11-10T07:05:03.599Z,8.40
2018-11-10T07:07:44.995Z,8.50
2018-11-10T07:10:26.795Z,8.60
2018-11-10T07:13:08.837Z,8.60
2018-11-10T07:15:50.950Z,8.70
2018-11-10T07:18:33.374Z,8.80
2018-11-10T07:21:15.904Z,8.90
2018-11-10T07:23:58.034Z,9.00
2018-11-10T07:26:40.688Z,9.10
2018-11-10T07:29:22.545Z,9.20
2018-11-10T07:32:05.005Z,9.30
2018-11-10T07:34:46.782Z,9.40
2018-11-10T07:37:29.478Z,9.50
2018-11-10T07:40:13.030Z,9.60
2018-11-10T07:42:54.831Z,9.70
2018-11-10T07:45:37.272Z,9.70
2018-11-10T07:48:19.713Z,9.80
2018-11-10T07:51:02.315Z,9.90
2018-11-10T07:53:44.670Z,10.00
2018-11-10T07:56:28.360Z,10.30
2018-11-10T07:59:11.765Z,11.50
2018-11-10T08:01:53.379Z,13.00
2018-11-10T08:04:35.211Z,14.20
2018-11-10T08:07:17.351Z,15.00
2018-11-10T08:09:59.499Z,15.30
2018-11-10T08:12:41.713Z,15.80
2018-11-10T08:15:23.912Z,16.10
2018-11-10T08:18:06.128Z,16.40
2018-11-10T08:20:47.907Z,17.40
2018-11-10T08:23:29.720Z,17.30
2018-11-10T08:26:12.122Z,17.30
2018-11-10T08:28:54.335Z,18.10
2018-11-10T08:31:35.756Z,18.00
2018-11-10T08:34:17.905Z,18.10
2018-11-10T08:36:59.651Z,18.00
2018-11-10T08:39:42.448Z,18.20
2018-11-10T08:42:23.902Z,18.20
2018-11-10T08:45:07.133Z,17.80
2018-11-10T08:47:48.780Z,18.20
2018-11-10T08:50:30.460Z,18.00
2018-11-10T08:53:11.863Z,17.80
2018-11-10T08:55:54.529Z,18.30
2018-11-10T08:58:37.384Z,18.30
2018-11-10T09:01:19.280Z,18.30
2018-11-10T09:04:01.160Z,18.20
2018-11-10T09:06:44.095Z,16.20
2018-11-10T09:09:25.889Z,17.60
2018-11-10T09:12:08.975Z,17.50
2018-11-10T09:14:50.494Z,18.00
2018-11-10T09:17:32.052Z,18.00
2018-11-10T09:20:16.488Z,17.90
2018-11-10T09:22:58.378Z,18.00
2018-11-10T09:25:41.179Z,17.80
2018-11-10T09:28:22.563Z,17.80
2018-11-10T09:31:04.684Z,17.10
2018-11-10T09:33:46.441Z,16.70
2018-11-10T09:36:27.993Z,17.10
2018-11-10T09:39:09.635Z,16.80
2018-11-10T09:41:52.489Z,16.50
2018-11-10T09:44:34.362Z,16.10
2018-11-10T09:47:16.134Z,15.60
2018-11-10T09:49:58.101Z,14.90
2018-11-10T09:52:40.381Z,14.40
2018-11-10T09:55:22.188Z,14.50
2018-11-10T09:58:04.042Z,14.60
2018-11-10T10:00:46.226Z,14.70
2018-11-10T10:03:28.404Z,16.00
2018-11-10T10:06:09.923Z,17.00
2018-11-10T10:08:52.510Z,17.60
2018-11-10T10:11:36.245Z,18.20
2018-11-10T10:14:18.473Z,17.60
2018-11-10T10:17:00.414Z,16.50
2018-11-10T10:19:42.131Z,16.70
2018-11-10T10:22:24.124Z,17.40
2018-11-10T10:25:06.992Z,18.20
2018-11-10T10:27:48.919Z,18.70
2018-11-10T10:30:31.194Z,18.50
2018-11-10T10:33:12.851Z,18.80
2018-11-10T10:35:54.766Z,19.10
2018-11-10T10:38:37.052Z,19.00
2018-11-10T10:41:19.855Z,18.70
2018-11-10T10:44:02.496Z,18.80
2018-11-10T10:46:43.992Z,19.60
2018-11-10T10:49:26.286Z,19.10
2018-11-10T10:52:08.656Z,19.00
2018-11-10T10:54:50.683Z,18.60
2018-11-10T10:57:32.284Z,18.40
2018-11-10T11:00:19.899Z,18.30
2018-11-10T11:03:07.252Z,18.80
2018-11-10T11:05:55.284Z,19.40
2018-11-10T11:08:36.847Z,19.40
2018-11-10T11:11:18.224Z,19.80
2018-11-10T11:14:00.104Z,20.10
2018-11-10T11:16:42.175Z,20.40
2018-11-10T11:19:23.774Z,19.70
2018-11-10T11:22:05.860Z,19.20
2018-11-10T11:24:47.569Z,18.80
2018-11-10T11:27:29.081Z,19.00
2018-11-10T11:30:10.495Z,19.40
2018-11-10T11:32:52.280Z,19.50
2018-11-10T11:35:34.360Z,19.20
2018-11-10T11:38:15.789Z,19.10
2018-11-10T11:40:57.414Z,19.40
2018-11-10T11:43:39.848Z,19.50
2018-11-10T11:46:21.973Z,19.40
2018-11-10T11:49:04.563Z,19.20
2018-11-10T11:51:46.284Z,18.70
2018-11-10T11:54:27.834Z,18.60
2018-11-10T11:57:09.676Z,18.50
2018-11-10T11:59:51.225Z,18.10
2018-11-10T12:02:32.949Z,18.20
2018-11-10T12:05:15.760Z,18.50
2018-11-10T12:07:57.724Z,18.70
2018-11-10T12:10:39.425Z,19.30
2018-11-10T12:13:21.158Z,19.00
2018-11-10T12:16:03.124Z,18.70
2018-11-10T12:18:44.763Z,19.40
2018-11-10T12:21:27.066Z,19.60
2018-11-10T12:24:08.699Z,19.20
2018-11-10T12:26:50.297Z,18.90
2018-11-10T12:29:32.331Z,18.70
2018-11-10T12:32:14.612Z,18.40
2018-11-10T12:34:56.105Z,18.50
2018-11-10T12:37:37.896Z,18.40
2018-11-10T12:40:19.861Z,18.20
2018-11-10T12:43:01.540Z,18.40
2018-11-10T12:45:43.385Z,18.60
2018-11-10T12:48:25.388Z,18.30
2018-11-10T12:51:07.472Z,18.80
2018-11-10T12:53:49.307Z,18.70
2018-11-10T12:56:31.108Z,18.80
2018-11-10T12:59:12.945Z,18.70
2018-11-10T13:01:54.861Z,18.50
2018-11-10T13:04:36.564Z,18.60
2018-11-10T13:07:18.323Z,18.30
2018-11-10T13:10:00.077Z,17.90
2018-11-10T13:12:42.824Z,17.60
2018-11-10T13:15:24.695Z,17.20
2018-11-10T13:18:07.611Z,17.00
2018-11-10T13:20:49.278Z,16.80
2018-11-10T13:23:31.193Z,16.90
2018-11-10T13:26:13.388Z,16.70
2018-11-10T13:28:55.809Z,16.50
2018-11-10T13:31:37.887Z,16.50
2018-11-10T13:34:20.928Z,16.30
2018-11-10T13:37:02.983Z,15.90
2018-11-10T13:39:44.462Z,15.80
2018-11-10T13:42:26.586Z,15.80
2018-11-10T13:45:11.768Z,15.70
2018-11-10T13:47:53.680Z,15.80
2018-11-10T13:50:36.126Z,15.80
2018-11-10T13:53:18.666Z,15.70
2018-11-10T13:56:01.446Z,15.60
2018-11-10T13:58:43.710Z,15.50
2018-11-10T14:01:25.398Z,14.90
2018-11-10T14:04:06.990Z,14.40
2018-11-10T14:06:49.144Z,14.20
2018-11-10T14:09:32.122Z,14.00
2018-11-10T14:12:14.465Z,13.90
2018-11-10T14:14:56.215Z,13.60
2018-11-10T14:17:38.191Z,13.30
2018-11-10T14:20:20.163Z,13.20
2018-11-10T14:23:02.262Z,13.00
2018-11-10T14:25:44.724Z,12.90
2018-11-10T14:28:26.303Z,12.70
2018-11-10T14:31:08.082Z,12.60
2018-11-10T14:33:49.562Z,12.60
2018-11-10T14:36:31.327Z,12.40
2018-11-10T14:39:13.281Z,12.40
2018-11-10T14:41:56.140Z,12.30
2018-11-10T14:44:38.243Z,12.10
2018-11-10T14:47:19.933Z,12.00
2018-11-10T14:50:02.109Z,12.00
2018-11-10T14:52:44.400Z,12.00
2018-11-10T14:55:26.443Z,12.00
2018-11-10T14:58:08.658Z,11.90
2018-11-10T15:00:51.116Z,11.90
2018-11-10T15:03:33.009Z,11.80
2018-11-10T15:06:15.152Z,11.70
2018-11-10T15:08:56.809Z,11.60
2018-11-10T15:11:38.652Z,11.50
2018-11-10T15:14:20.897Z,11.50
2018-11-10T15:17:03.009Z,11.30
2018-11-10T15:19:45.364Z,11.30
2018-11-10T15:22:28.335Z,11.20
2018-11-10T15:25:11.927Z,11.20
2018-11-10T15:27:53.818Z,11.10
2018-11-10T15:30:36.160Z,11.00
2018-11-10T15:33:18.823Z,10.90
2018-11-10T15:36:01.136Z,10.90
2018-11-10T15:38:42.935Z,10.80
2018-11-10T15:41:25.743Z,10.70
2018-11-10T15:44:07.659Z,10.70
2018-11-10T15:46:50.398Z,10.70
2018-11-10T15:49:32.613Z,10.70
2018-11-10T15:52:15.024Z,10.60
2018-11-10T15:54:56.960Z,10.50
2018-11-10T15:57:40.547Z,10.50
2018-11-10T16:00:23.883Z,10.40
2018-11-10T16:03:06.296Z,10.40
2018-11-10T16:05:48.452Z,10.30
2018-11-10T16:08:30.454Z,10.30
2018-11-10T16:11:12.144Z,10.20
2018-11-10T16:13:55.575Z,10.20
2018-11-10T16:16:38.122Z,10.00
2018-11-10T16:19:19.979Z,10.00
2018-11-10T16:22:01.751Z,10.00
2018-11-10T16:24:43.817Z,10.00
2018-11-10T16:27:26.955Z,9.90
2018-11-10T16:30:13.134Z,9.90
2018-11-10T16:32:54.854Z,9.90
2018-11-10T16:35:37.279Z,9.80
2018-11-10T16:38:19.206Z,9.70
2018-11-10T16:41:01.465Z,9.70
2018-11-10T16:43:43.300Z,9.70
2018-11-10T16:46:25.172Z,9.60
2018-11-10T16:49:06.991Z,9.70
2018-11-10T16:51:49.617Z,9.70
2018-11-10T16:54:31.475Z,9.60
2018-11-10T16:57:13.460Z,9.60
2018-11-10T16:59:55.759Z,9.60
2018-11-10T17:02:38.172Z,9.60
2018-11-10T17:05:20.165Z,9.50
2018-11-10T17:08:02.266Z,9.50
2018-11-10T17:10:44.367Z,9.30
2018-11-10T17:13:26.100Z,9.30
2018-11-10T17:16:08.643Z,9.30
2018-11-10T17:18:52.166Z,9.30
2018-11-10T17:21:34.130Z,9.20
2018-11-10T17:24:15.852Z,9.20
2018-11-10T17:26:58.613Z,9.20
2018-11-10T17:29:40.412Z,9.20
2018-11-10T17:32:23.137Z,9.20
2018-11-10T17:35:06.304Z,9.10
2018-11-10T17:37:48.100Z,9.10
2018-11-10T17:40:30.620Z,9.10
2018-11-10T17:43:12.385Z,9.20
2018-11-10T17:45:54.532Z,9.20
2018-11-10T17:48:37.523Z,9.20
2018-11-10T17:51:19.728Z,9.00
2018-11-10T17:54:01.485Z,8.90
2018-11-10T17:56:43.842Z,8.90
2018-11-10T17:59:26.006Z,9.00
2018-11-10T18:02:08.954Z,9.00
2018-11-10T18:04:51.884Z,9.00
2018-11-10T18:07:34.011Z,9.00
2018-11-10T18:10:17.416Z,8.80
2018-11-10T18:12:59.532Z,8.70
2018-11-10T18:15:42.202Z,8.80
2018-11-10T18:18:24.028Z,8.80
2018-11-10T18:21:06.551Z,8.70
2018-11-10T18:23:48.718Z,8.70
2018-11-10T18:26:30.935Z,8.70
2018-11-10T18:29:13.364Z,8.70
2018-11-10T18:31:55.670Z,8.70
2018-11-10T18:34:37.655Z,8.70
2018-11-10T18:37:19.844Z,8.80
2018-11-10T18:40:02.165Z,8.70
2018-11-10T18:42:44.250Z,8.60
2018-11-10T18:45:26.323Z,8.60
2018-11-10T18:48:08.502Z,8.60
2018-11-10T18:50:52.091Z,8.50
2018-11-10T18:53:35.442Z,8.50
2018-11-10T18:56:17.181Z,8.50
2018-11-10T18:59:00.768Z,8.60
2018-11-10T19:01:42.611Z,8.60
2018-11-10T19:04:24.581Z,8.60
2018-11-10T19:07:07.761Z,8.40
2018-11-10T19:09:49.731Z,8.40
2018-11-10T19:12:32.142Z,8.30
2018-11-10T19:15:20.149Z,8.30
2018-11-10T19:18:06.506Z,8.30
2018-11-10T19:20:49.194Z,8.30
2018-11-10T19:23:31.425Z,8.30
2018-11-10T19:26:13.783Z,8.20
2018-11-10T19:28:55.508Z,8.20
2018-11-10T19:31:37.935Z,8.30
2018-11-10T19:34:19.755Z,8.20
2018-11-10T19:37:01.545Z,8.20
2018-11-10T19:39:43.504Z,8.20
2018-11-10T19:42:25.519Z,8.30
2018-11-10T19:45:09.234Z,8.30
2018-11-10T19:47:51.193Z,8.10
2018-11-10T19:50:33.607Z,8.20
2018-11-10T19:53:15.548Z,8.20
2018-11-10T19:55:57.321Z,8.20
2018-11-10T19:58:39.464Z,8.10
2018-11-10T20:01:22.008Z,8.00
2018-11-10T20:04:04.438Z,7.90
2018-11-10T20:06:47.289Z,7.80
2018-11-10T20:09:29.514Z,7.90
2018-11-10T20:12:11.378Z,7.90
2018-11-10T20:14:53.178Z,7.90
2018-11-10T20:17:35.311Z,7.80
2018-11-10T20:20:18.653Z,7.70
2018-11-10T20:23:00.028Z,7.70
2018-11-10T20:25:42.567Z,7.70
2018-11-10T20:28:24.377Z,7.80
2018-11-10T20:31:06.505Z,7.80
2018-11-10T20:33:48.730Z,7.70
2018-11-10T20:36:31.792Z,7.80
2018-11-10T20:39:13.725Z,7.80
2018-11-10T20:41:55.546Z,7.80
2018-11-10T20:44:37.400Z,7.80
2018-11-10T20:47:19.687Z,7.80
2018-11-10T20:50:01.924Z,7.80
2018-11-10T20:52:44.024Z,7.70
2018-11-10T20:55:26.460Z,7.70
2018-11-10T20:58:08.291Z,7.70
2018-11-10T21:00:50.736Z,7.80
2018-11-10T21:03:32.932Z,7.70
2018-11-10T21:06:15.130Z,7.60
2018-11-10T21:08:57.152Z,7.50
2018-11-10T21:11:39.504Z,7.70
2018-11-10T21:14:21.344Z,7.80
2018-11-10T21:17:03.075Z,7.80
2018-11-10T21:19:45.258Z,7.80
2018-11-10T21:22:27.013Z,7.70
2018-11-10T21:25:11.076Z,7.80
2018-11-10T21:27:53.195Z,7.80
2018-11-10T21:30:35.921Z,7.90
2018-11-10T21:33:18.348Z,7.90
2018-11-10T21:36:00.211Z,7.90
2018-11-10T21:38:42.543Z,8.00
2018-11-10T21:41:24.259Z,7.90
2018-11-10T21:44:06.684Z,7.90
2018-11-10T21:46:49.681Z,8.00
2018-11-10T21:49:31.652Z,8.00
2018-11-10T21:52:13.931Z,8.00
2018-11-10T21:54:55.968Z,8.00
2018-11-10T21:57:37.792Z,7.90
2018-11-10T22:00:21.853Z,7.80
2018-11-10T22:03:03.839Z,7.70
2018-11-10T22:05:45.552Z,7.70
2018-11-10T22:08:27.552Z,7.70
2018-11-10T22:11:09.639Z,7.70
2018-11-10T22:13:51.455Z,7.70
2018-11-10T22:16:33.605Z,7.70
2018-11-10T22:19:15.604Z,7.60
2018-11-10T22:21:57.251Z,7.50
2018-11-10T22:24:39.332Z,7.70
2018-11-10T22:27:21.343Z,7.70
2018-11-10T22:30:03.656Z,7.70
2018-11-10T22:32:46.588Z,7.70
2018-11-10T22:35:28.719Z,7.60
2018-11-10T22:38:11.243Z,7.50
2018-11-10T22:40:53.999Z,7.60
2018-11-10T22:43:35.880Z,7.60
2018-11-10T22:46:18.430Z,7.60
2018-11-10T22:49:00.604Z,7.50
2018-11-10T22:51:42.774Z,7.40
2018-11-10T22:54:25.386Z,7.40
2018-11-10T22:57:07.729Z,7.40
2018-11-10T22:59:51.155Z,7.30
2018-11-10T23:02:33.056Z,7.30
2018-11-10T23:05:15.376Z,7.30
2018-11-10T23:07:57.469Z,7.30
2018-11-10T23:10:39.479Z,7.20
2018-11-10T23:13:21.948Z,7.30
2018-11-10T23:16:04.552Z,7.30
2018-11-10T23:18:46.299Z,7.20
2018-11-10T23:21:28.032Z,7.10
2018-11-10T23:24:10.299Z,7.10
2018-11-10T23:26:52.287Z,7.00
2018-11-10T23:29:34.695Z,6.90
2018-11-10T23:32:17.368Z,6.90
2018-11-10T23:35:00.000Z,7.00
2018-11-10T23:37:42.389Z,7.00
2018-11-10T23:40:24.203Z,7.00
2018-11-10T23:43:06.112Z,7.00
2018-11-10T23:45:48.775Z,6.80
2018-11-10T23:48:30.939Z,6.70
2018-11-10T23:51:13.024Z,6.80
2018-11-10T23:53:55.262Z,6.70
2018-11-10T23:56:37.508Z,6.60
2018-11-10T23:59:19.695Z,6.60
